createdAt,value
2022-12-16T00:01:12.462Z,99598.75
2022-12-16T00:03:42.100Z,99601.09
2022-12-16T00:06:14.146Z,99603.38
2022-12-16T00:08:43.567Z,99600.09
2022-12-16T00:11:13.020Z,99595.34
2022-12-16T00:13:43.064Z,99597.81
2022-12-16T00:16:13.558Z,99608.72
2022-12-16T00:18:43.181Z,99600.00
2022-12-16T00:21:15.161Z,99602.72
2022-12-16T00:23:44.587Z,99602.28
2022-12-16T00:26:14.180Z,99609.13
2022-12-16T00:28:44.023Z,99597.00
2022-12-16T00:31:13.569Z,99595.22
2022-12-16T00:33:43.054Z,99590.47
2022-12-16T00:36:15.088Z,99589.25
2022-12-16T00:38:44.509Z,99590.81
2022-12-16T00:41:13.935Z,99597.66
2022-12-16T00:43:43.375Z,99593.22
2022-12-16T00:46:12.860Z,99595.22
2022-12-16T00:48:42.314Z,99592.06
2022-12-16T00:51:11.718Z,99589.63
2022-12-16T00:53:43.718Z,99589.38
2022-12-16T00:56:14.571Z,99590.75
2022-12-16T00:58:44.188Z,99584.09
2022-12-16T01:01:13.873Z,99597.44
2022-12-16T01:03:43.679Z,99601.53
2022-12-16T01:06:14.028Z,99601.41
2022-12-16T01:08:49.029Z,99614.22
2022-12-16T01:11:18.806Z,99614.22
2022-12-16T01:13:49.012Z,99621.59
2022-12-16T01:16:18.492Z,99619.69
2022-12-16T01:18:47.989Z,99615.63
2022-12-16T01:21:17.681Z,99617.66
2022-12-16T01:23:50.004Z,99633.28
2022-12-16T01:26:20.166Z,99639.84
2022-12-16T01:28:50.790Z,99636.59
2022-12-16T01:31:20.806Z,99649.69
2022-12-16T01:33:50.659Z,99642.31
2022-12-16T01:36:20.200Z,99652.28
2022-12-16T01:38:52.190Z,99651.16
2022-12-16T01:41:21.608Z,99658.25
2022-12-16T01:43:51.033Z,99663.03
2022-12-16T01:46:23.258Z,99662.88
2022-12-16T01:48:54.494Z,99663.31
2022-12-16T01:51:26.298Z,99659.63
2022-12-16T01:54:00.147Z,99661.69
2022-12-16T01:56:31.093Z,99660.59
2022-12-16T01:59:00.253Z,99660.88
2022-12-16T02:01:29.841Z,99663.59
2022-12-16T02:04:01.857Z,99662.88
2022-12-16T02:06:31.287Z,99670.13
2022-12-16T02:09:06.110Z,99673.53
2022-12-16T02:11:56.552Z,99673.25
2022-12-16T02:15:01.506Z,99675.03
2022-12-16T02:17:33.418Z,99668.06
2022-12-16T02:20:23.839Z,99670.69
2022-12-16T02:23:02.009Z,99672.59
2022-12-16T02:25:43.462Z,99675.31
2022-12-16T02:28:12.875Z,99670.53
2022-12-16T02:31:02.439Z,99672.97
2022-12-16T02:33:42.907Z,99677.91
2022-12-16T02:36:14.913Z,99677.47
2022-12-16T02:38:50.146Z,99678.16
2022-12-16T02:41:26.361Z,99673.81
2022-12-16T02:43:57.654Z,99678.97
2022-12-16T02:46:30.333Z,99677.88
2022-12-16T02:48:59.740Z,99678.91
2022-12-16T02:51:29.335Z,99678.66
2022-12-16T02:53:58.941Z,99674.72
2022-12-16T02:56:34.644Z,99681.13
2022-12-16T02:59:11.426Z,99678.41
2022-12-16T03:01:45.859Z,99674.81
2022-12-16T03:04:17.362Z,99682.47
2022-12-16T03:06:47.474Z,99677.84
2022-12-16T03:09:17.013Z,99684.50
2022-12-16T03:11:46.430Z,99686.00
2022-12-16T03:14:18.585Z,99692.63
2022-12-16T03:16:50.645Z,99685.59
2022-12-16T03:19:20.602Z,99684.91
2022-12-16T03:21:53.454Z,99681.50
2022-12-16T03:24:22.929Z,99680.16
2022-12-16T03:26:55.499Z,99684.63
2022-12-16T03:29:27.926Z,99697.63
2022-12-16T03:32:01.258Z,99698.69
2022-12-16T03:34:34.196Z,99708.84
2022-12-16T03:37:07.200Z,99711.13
2022-12-16T03:39:38.027Z,99713.69
2022-12-16T03:42:07.645Z,99715.97
2022-12-16T03:44:37.392Z,99713.22
2022-12-16T03:47:09.405Z,99719.25
2022-12-16T03:49:39.006Z,99723.88
2022-12-16T03:52:08.671Z,99723.31
2022-12-16T03:54:38.090Z,99732.28
2022-12-16T03:57:13.294Z,99738.19
2022-12-16T03:59:44.569Z,99731.50
2022-12-16T04:02:16.699Z,99735.59
2022-12-16T04:04:46.187Z,99739.13
2022-12-16T04:07:24.922Z,99742.47
2022-12-16T04:09:54.802Z,99752.28
2022-12-16T04:12:36.726Z,99749.13
2022-12-16T04:15:18.810Z,99749.75
2022-12-16T04:18:03.270Z,99755.09
2022-12-16T04:20:47.264Z,99752.88
2022-12-16T04:23:29.283Z,99752.78
2022-12-16T04:25:58.795Z,99753.16
2022-12-16T04:28:30.451Z,99760.72
2022-12-16T04:30:59.881Z,99757.63
2022-12-16T04:33:44.382Z,99753.97
2022-12-16T04:36:26.277Z,99752.06
2022-12-16T04:39:08.158Z,99750.66
2022-12-16T04:41:50.049Z,99761.09
2022-12-16T04:44:32.015Z,99756.06
2022-12-16T04:47:14.031Z,99773.34
2022-12-16T04:49:58.514Z,99765.38
2022-12-16T04:52:40.409Z,99761.38
2022-12-16T04:55:23.055Z,99766.66
2022-12-16T04:58:05.806Z,99771.03
2022-12-16T05:00:47.678Z,99774.28
2022-12-16T05:03:29.931Z,99768.91
2022-12-16T05:06:14.882Z,99771.59
2022-12-16T05:08:56.775Z,99780.81
2022-12-16T05:11:38.675Z,99779.25
2022-12-16T05:14:20.583Z,99783.34
2022-12-16T05:17:02.503Z,99783.63
2022-12-16T05:19:44.381Z,99777.41
2022-12-16T05:22:29.097Z,99790.72
2022-12-16T05:25:11.012Z,99792.75
2022-12-16T05:27:53.003Z,99801.84
2022-12-16T05:30:34.881Z,99808.69
2022-12-16T05:33:16.758Z,99814.91
2022-12-16T05:35:58.662Z,99823.50
2022-12-16T05:38:51.989Z,99824.19
2022-12-16T05:41:34.002Z,99823.47
2022-12-16T05:44:15.918Z,99833.28
2022-12-16T05:46:57.908Z,99834.59
2022-12-16T05:49:39.902Z,99844.09
2022-12-16T05:52:21.817Z,99853.31
2022-12-16T05:55:06.270Z,99853.09
2022-12-16T05:57:48.162Z,99858.97
2022-12-16T06:00:30.863Z,99856.69
2022-12-16T06:03:12.845Z,99865.22
2022-12-16T06:05:54.829Z,99861.31
2022-12-16T06:08:36.792Z,99869.19
2022-12-16T06:11:21.258Z,99859.59
2022-12-16T06:14:03.157Z,99864.47
2022-12-16T06:16:45.091Z,99868.69
2022-12-16T06:19:27.020Z,99872.13
2022-12-16T06:22:08.885Z,99872.69
2022-12-16T06:24:50.942Z,99873.69
2022-12-16T06:27:38.125Z,99878.16
2022-12-16T06:30:21.137Z,99885.22
2022-12-16T06:33:03.045Z,99888.44
2022-12-16T06:35:45.056Z,99897.13
2022-12-16T06:38:26.933Z,99898.50
2022-12-16T06:41:08.827Z,99902.25
2022-12-16T06:43:53.310Z,99905.84
2022-12-16T06:46:35.213Z,99909.41
2022-12-16T06:49:20.284Z,99918.97
2022-12-16T06:52:02.178Z,99924.47
2022-12-16T06:54:44.089Z,99927.63
2022-12-16T06:57:25.973Z,99934.13
2022-12-16T07:00:10.942Z,99937.50
2022-12-16T07:02:52.907Z,99947.41
2022-12-16T07:05:35.076Z,99942.34
2022-12-16T07:08:16.990Z,99946.56
2022-12-16T07:11:15.295Z,99944.81
2022-12-16T07:13:58.318Z,99957.69
2022-12-16T07:16:42.876Z,99961.13
2022-12-16T07:19:24.786Z,99965.50
2022-12-16T07:22:06.706Z,99971.53
2022-12-16T07:24:48.607Z,99970.63
2022-12-16T07:27:30.529Z,99976.69
2022-12-16T07:30:12.430Z,99972.00
2022-12-16T07:32:56.971Z,99983.75
2022-12-16T07:35:38.987Z,99983.56
2022-12-16T07:38:20.895Z,99981.38
2022-12-16T07:41:06.309Z,99977.00
2022-12-16T07:43:48.185Z,99994.03
2022-12-16T07:46:30.167Z,100001.91
2022-12-16T07:49:14.790Z,100004.09
2022-12-16T07:51:56.900Z,100003.78
2022-12-16T07:54:38.848Z,100009.88
2022-12-16T07:57:20.747Z,100023.56
2022-12-16T08:00:02.651Z,100027.72
2022-12-16T08:02:44.767Z,100037.19
2022-12-16T08:05:29.531Z,100033.16
2022-12-16T08:08:11.470Z,100037.03
2022-12-16T08:10:53.371Z,100043.38
2022-12-16T08:13:37.747Z,100043.97
2022-12-16T08:16:20.789Z,100048.34
2022-12-16T08:19:07.552Z,100051.22
2022-12-16T08:21:55.410Z,100050.38
2022-12-16T08:24:37.752Z,100059.63
2022-12-16T08:27:19.792Z,100064.06
2022-12-16T08:30:01.720Z,100074.81
2022-12-16T08:32:43.873Z,100074.06
2022-12-16T08:35:25.782Z,100083.00
2022-12-16T08:38:14.067Z,100084.63
2022-12-16T08:41:11.110Z,100092.59
2022-12-16T08:43:53.004Z,100095.94
2022-12-16T08:46:35.163Z,100098.00
2022-12-16T08:49:17.412Z,100104.31
2022-12-16T08:51:59.467Z,100109.97
2022-12-16T08:54:43.966Z,100121.00
2022-12-16T08:57:25.861Z,100108.34
2022-12-16T09:00:07.775Z,100117.78
2022-12-16T09:02:49.867Z,100118.09
2022-12-16T09:05:31.952Z,100122.34
2022-12-16T09:08:14.616Z,100122.59
2022-12-16T09:10:59.090Z,100126.06
2022-12-16T09:13:41.010Z,100127.03
2022-12-16T09:16:23.333Z,100129.34
2022-12-16T09:19:05.271Z,100130.16
2022-12-16T09:21:47.173Z,100131.41
2022-12-16T09:24:29.096Z,100131.53
2022-12-16T09:27:13.641Z,100135.31
2022-12-16T09:29:55.567Z,100145.19
2022-12-16T09:32:37.783Z,100148.72
2022-12-16T09:35:20.269Z,100138.97
2022-12-16T09:38:02.260Z,100146.63
2022-12-16T09:40:44.163Z,100146.03
2022-12-16T09:43:40.977Z,100139.72
2022-12-16T09:46:26.551Z,100149.59
2022-12-16T09:49:11.444Z,100153.41
2022-12-16T09:51:53.432Z,100149.13
2022-12-16T09:54:35.344Z,100151.97
2022-12-16T09:57:17.924Z,100150.97
2022-12-16T10:00:05.194Z,100150.69
2022-12-16T10:02:47.297Z,100150.75
2022-12-16T10:05:38.579Z,100152.31
2022-12-16T10:08:24.403Z,100156.53
2022-12-16T10:11:11.877Z,100150.72
2022-12-16T10:13:55.601Z,100150.97
2022-12-16T10:16:56.975Z,100149.16
2022-12-16T10:19:45.814Z,100161.16
2022-12-16T10:22:31.243Z,100152.16
2022-12-16T10:25:19.121Z,100151.31
2022-12-16T10:28:10.205Z,100158.09
2022-12-16T10:30:52.884Z,100162.97
2022-12-16T10:33:38.689Z,100162.53
2022-12-16T10:36:21.489Z,100161.72
2022-12-16T10:39:05.003Z,100165.72
2022-12-16T10:41:48.643Z,100162.06
2022-12-16T10:44:34.321Z,100166.88
2022-12-16T10:47:16.218Z,100166.34
2022-12-16T10:50:00.945Z,100168.31
2022-12-16T10:52:42.906Z,100168.50
2022-12-16T10:55:30.087Z,100174.84
2022-12-16T10:58:16.204Z,100171.38
2022-12-16T11:00:59.790Z,100178.31
2022-12-16T11:03:42.909Z,100168.63
2022-12-16T11:06:30.335Z,100171.44
2022-12-16T11:09:12.230Z,100170.19
2022-12-16T11:11:54.129Z,100169.53
2022-12-16T11:14:38.639Z,100174.75
2022-12-16T11:17:28.283Z,100166.78
2022-12-16T11:20:24.110Z,100175.50
2022-12-16T11:23:23.195Z,100171.00
2022-12-16T11:26:05.110Z,100176.53
2022-12-16T11:28:47.008Z,100178.97
2022-12-16T11:31:29.481Z,100175.03
2022-12-16T11:34:11.391Z,100179.41
2022-12-16T11:36:53.729Z,100174.81
2022-12-16T11:39:39.456Z,100171.06
2022-12-16T11:42:21.566Z,100173.81
2022-12-16T11:45:04.559Z,100182.03
2022-12-16T11:47:51.102Z,100179.28
2022-12-16T11:50:34.590Z,100186.53
2022-12-16T11:53:16.525Z,100178.75
2022-12-16T11:56:06.829Z,100181.09
2022-12-16T11:58:55.916Z,100190.09
2022-12-16T12:01:44.996Z,100193.13
2022-12-16T12:04:27.594Z,100205.50
2022-12-16T12:07:19.876Z,100194.50
2022-12-16T12:10:07.127Z,100207.22
2022-12-16T12:12:54.070Z,100205.53
2022-12-16T12:15:40.002Z,100213.72
2022-12-16T12:18:27.185Z,100213.50
2022-12-16T12:21:10.882Z,100213.50
2022-12-16T12:23:55.787Z,100215.13
2022-12-16T12:26:39.348Z,100223.97
2022-12-16T12:29:28.654Z,100232.25
2022-12-16T12:32:13.603Z,100234.72
2022-12-16T12:34:58.028Z,100235.16
2022-12-16T12:37:41.345Z,100239.56
2022-12-16T12:40:33.434Z,100235.91
2022-12-16T12:43:15.640Z,100233.41
2022-12-16T12:46:10.355Z,100234.56
2022-12-16T12:48:57.635Z,100238.03
2022-12-16T12:51:41.603Z,100240.69
2022-12-16T12:54:33.052Z,100238.09
2022-12-16T12:57:15.374Z,100239.97
2022-12-16T13:00:02.956Z,100238.25
2022-12-16T13:02:52.941Z,100241.50
2022-12-16T13:05:34.962Z,100241.00
2022-12-16T13:08:46.760Z,100243.38
2022-12-16T13:11:35.135Z,100245.16
2022-12-16T13:14:17.615Z,100256.88
2022-12-16T13:17:25.249Z,100258.66
2022-12-16T13:20:15.895Z,100258.41
2022-12-16T13:22:59.311Z,100259.75
2022-12-16T13:25:56.283Z,100263.78
2022-12-16T13:28:40.098Z,100269.84
2022-12-16T13:31:25.562Z,100271.50
2022-12-16T13:34:08.065Z,100283.03
2022-12-16T13:36:52.995Z,100295.25
2022-12-16T13:39:39.265Z,100298.75
2022-12-16T13:42:21.186Z,100298.63
2022-12-16T13:45:13.343Z,100302.03
2022-12-16T13:48:13.566Z,100300.53
2022-12-16T13:50:56.577Z,100305.72
2022-12-16T13:53:42.265Z,100307.06
2022-12-16T13:56:25.502Z,100320.63
2022-12-16T13:59:08.062Z,100317.50
2022-12-16T14:01:52.227Z,100315.09
2022-12-16T14:04:39.022Z,100317.50
2022-12-16T14:07:24.671Z,100325.50
2022-12-16T14:10:09.504Z,100338.75
2022-12-16T14:13:01.691Z,100338.09
2022-12-16T14:15:48.579Z,100345.25
2022-12-16T14:18:39.231Z,100348.81
2022-12-16T14:21:25.648Z,100350.75
2022-12-16T14:24:08.832Z,100357.25
2022-12-16T14:26:53.342Z,100361.56
2022-12-16T14:29:37.069Z,100366.72
2022-12-16T14:32:28.541Z,100369.59
2022-12-16T14:35:16.447Z,100371.81
2022-12-16T14:37:58.383Z,100375.44
2022-12-16T14:40:43.714Z,100376.06
2022-12-16T14:43:30.597Z,100380.50
2022-12-16T14:46:12.740Z,100378.34
2022-12-16T14:48:54.689Z,100384.69
2022-12-16T14:51:41.767Z,100393.22
2022-12-16T14:54:37.247Z,100405.84
2022-12-16T14:57:19.395Z,100409.69
2022-12-16T15:00:14.254Z,100411.91
2022-12-16T15:02:56.364Z,100418.22
2022-12-16T15:05:39.394Z,100422.06
2022-12-16T15:08:21.371Z,100423.16
2022-12-16T15:11:03.278Z,100433.84
2022-12-16T15:13:45.205Z,100432.34
2022-12-16T15:16:30.941Z,100436.47
2022-12-16T15:19:14.159Z,100444.41
2022-12-16T15:21:56.269Z,100437.13
2022-12-16T15:24:39.170Z,100443.69
2022-12-16T15:27:37.856Z,100456.84
2022-12-16T15:30:47.412Z,100456.56
2022-12-16T15:33:33.967Z,100467.50
2022-12-16T15:36:16.559Z,100467.81
2022-12-16T15:38:58.513Z,100475.44
2022-12-16T15:41:44.201Z,100478.88
2022-12-16T15:44:33.385Z,100479.97
2022-12-16T15:47:15.310Z,100480.09
2022-12-16T15:50:04.341Z,100484.75
2022-12-16T15:52:49.694Z,100483.34
2022-12-16T15:55:42.276Z,100494.59
2022-12-16T15:58:28.723Z,100491.13
2022-12-16T16:01:12.512Z,100496.91
2022-12-16T16:03:54.570Z,100505.78
2022-12-16T16:06:39.787Z,100496.81
2022-12-16T16:09:28.612Z,100499.16
2022-12-16T16:12:10.534Z,100507.22
2022-12-16T16:14:52.471Z,100509.00
2022-12-16T16:17:36.303Z,100513.78
2022-12-16T16:20:18.322Z,100517.97
2022-12-16T16:23:02.830Z,100517.44
2022-12-16T16:25:44.726Z,100531.63
2022-12-16T16:28:26.669Z,100532.44
2022-12-16T16:31:08.622Z,100522.56
2022-12-16T16:33:50.604Z,100537.16
2022-12-16T16:36:32.521Z,100543.94
2022-12-16T16:39:17.033Z,100544.06
2022-12-16T16:41:58.962Z,100553.38
2022-12-16T16:44:40.897Z,100549.97
2022-12-16T16:47:24.463Z,100546.78
2022-12-16T16:50:06.511Z,100547.88
2022-12-16T16:52:48.447Z,100554.84
2022-12-16T16:55:34.342Z,100560.78
2022-12-16T16:58:16.298Z,100553.56
2022-12-16T17:00:58.333Z,100560.44
2022-12-16T17:03:41.156Z,100569.88
2022-12-16T17:06:23.613Z,100572.81
2022-12-16T17:09:05.549Z,100578.03
2022-12-16T17:11:50.042Z,100580.56
2022-12-16T17:14:33.006Z,100582.00
2022-12-16T17:17:15.042Z,100581.28
2022-12-16T17:19:57.014Z,100587.56
2022-12-16T17:22:38.910Z,100585.09
2022-12-16T17:25:22.274Z,100587.47
2022-12-16T17:28:06.755Z,100589.84
2022-12-16T17:30:51.195Z,100597.88
2022-12-16T17:33:33.588Z,100606.34
2022-12-16T17:36:15.869Z,100604.81
2022-12-16T17:38:58.474Z,100609.44
2022-12-16T17:41:40.617Z,100606.03
2022-12-16T17:44:25.121Z,100620.56
2022-12-16T17:47:07.032Z,100621.84
2022-12-16T17:49:48.947Z,100625.28
2022-12-16T17:52:30.882Z,100630.97
2022-12-16T17:55:12.796Z,100630.00
2022-12-16T17:57:54.720Z,100631.88
2022-12-16T18:00:39.252Z,100639.09
2022-12-16T18:03:36.176Z,100636.97
2022-12-16T18:06:18.619Z,100644.16
2022-12-16T18:09:00.497Z,100645.47
2022-12-16T18:11:42.399Z,100655.28
2022-12-16T18:14:24.422Z,100654.09
2022-12-16T18:17:08.915Z,100654.44
2022-12-16T18:20:02.474Z,100665.16
2022-12-16T18:22:44.381Z,100667.78
2022-12-16T18:25:26.298Z,100677.94
2022-12-16T18:28:23.159Z,100675.81
2022-12-16T18:31:16.735Z,100677.69
2022-12-16T18:34:01.287Z,100683.97
2022-12-16T18:36:57.949Z,100682.44
2022-12-16T18:39:39.888Z,100687.50
2022-12-16T18:42:21.802Z,100695.84
2022-12-16T18:45:04.451Z,100694.47
2022-12-16T18:47:46.365Z,100698.69
2022-12-16T18:50:37.260Z,100700.72
2022-12-16T18:53:20.068Z,100700.34
2022-12-16T18:56:01.972Z,100705.91
2022-12-16T18:58:51.133Z,100707.78
2022-12-16T19:01:33.517Z,100712.16
2022-12-16T19:04:15.527Z,100713.66
2022-12-16T19:07:00.300Z,100719.31
2022-12-16T19:09:42.240Z,100721.22
2022-12-16T19:12:24.207Z,100721.34
2022-12-16T19:15:06.116Z,100727.00
2022-12-16T19:17:48.055Z,100728.06
2022-12-16T19:20:33.225Z,100733.50
2022-12-16T19:23:17.896Z,100739.84
2022-12-16T19:25:59.821Z,100738.44
2022-12-16T19:28:42.218Z,100735.25
2022-12-16T19:31:28.224Z,100743.25
2022-12-16T19:34:26.225Z,100745.63
2022-12-16T19:37:08.156Z,100753.91
2022-12-16T19:39:53.322Z,100756.50
2022-12-16T19:42:35.778Z,100754.84
2022-12-16T19:45:17.687Z,100759.19
2022-12-16T19:47:59.626Z,100755.44
2022-12-16T19:50:41.974Z,100762.53
2022-12-16T19:53:23.907Z,100773.56
2022-12-16T19:56:12.532Z,100772.84
2022-12-16T19:58:56.407Z,100780.63
2022-12-16T20:01:47.161Z,100782.63
2022-12-16T20:04:29.132Z,100781.81
2022-12-16T20:07:11.070Z,100789.59
2022-12-16T20:09:54.843Z,100790.41
2022-12-16T20:12:40.665Z,100794.91
2022-12-16T20:15:23.580Z,100796.44
2022-12-16T20:18:05.510Z,100797.72
2022-12-16T20:20:47.467Z,100797.94
2022-12-16T20:23:29.402Z,100803.25
2022-12-16T20:26:11.882Z,100800.44
2022-12-16T20:28:56.517Z,100805.00
2022-12-16T20:31:38.501Z,100808.03
2022-12-16T20:34:20.475Z,100813.13
2022-12-16T20:37:02.392Z,100817.47
2022-12-16T20:39:49.448Z,100820.47
2022-12-16T20:42:51.160Z,100817.16
2022-12-16T20:45:37.963Z,100824.66
2022-12-16T20:48:22.225Z,100827.09
2022-12-16T20:51:10.238Z,100829.34
2022-12-16T20:53:53.234Z,100835.81
2022-12-16T20:56:35.254Z,100834.03
2022-12-16T20:59:17.461Z,100844.69
2022-12-16T21:05:03.878Z,100864.69
2022-12-16T21:07:45.815Z,100853.34
2022-12-16T21:10:27.786Z,100862.16
2022-12-16T21:13:09.753Z,100864.75
2022-12-16T21:15:52.523Z,100866.81
2022-12-16T21:18:41.127Z,100869.59
2022-12-16T21:21:23.070Z,100876.75
2022-12-16T21:24:04.978Z,100873.91
2022-12-16T21:26:46.930Z,100882.63
2022-12-16T21:29:28.841Z,100878.50
2022-12-16T21:32:10.762Z,100884.78
2022-12-16T21:34:56.247Z,100887.19
2022-12-16T21:37:38.416Z,100895.50
2022-12-16T21:40:21.621Z,100894.97
2022-12-16T21:43:03.602Z,100894.13
2022-12-16T21:45:45.527Z,100901.63
2022-12-16T21:48:45.092Z,100907.41
2022-12-16T21:51:29.592Z,100919.97
2022-12-16T21:54:11.510Z,100918.66
2022-12-16T21:56:53.443Z,100930.47
2022-12-16T21:59:38.497Z,100930.19
2022-12-16T22:02:20.456Z,100935.47
2022-12-16T22:05:02.382Z,100938.56
2022-12-16T22:07:47.037Z,100943.56
2022-12-16T22:10:29.109Z,100947.56
2022-12-16T22:13:11.054Z,100947.69
2022-12-16T22:15:52.985Z,100951.44
2022-12-16T22:18:50.185Z,100958.28
2022-12-16T22:21:32.086Z,100961.69
2022-12-16T22:24:16.826Z,100964.41
2022-12-16T22:27:01.179Z,100967.50
2022-12-16T22:29:43.081Z,100970.41
2022-12-16T22:32:24.999Z,100982.06
2022-12-16T22:35:06.912Z,100978.66
2022-12-16T22:37:48.843Z,100976.28
2022-12-16T22:40:33.161Z,100981.84
2022-12-16T22:43:15.071Z,100991.50
2022-12-16T22:45:57.165Z,100993.97
2022-12-16T22:48:39.233Z,100999.59
2022-12-16T22:51:37.042Z,100996.06
2022-12-16T22:54:19.290Z,101008.31
2022-12-16T22:57:03.761Z,101009.44
2022-12-16T22:59:45.749Z,101020.22
2022-12-16T23:02:27.656Z,101016.06
2022-12-16T23:05:09.650Z,101016.78
2022-12-16T23:07:51.672Z,101025.22
2022-12-16T23:10:33.846Z,101028.41
2022-12-16T23:13:18.350Z,101032.72
2022-12-16T23:16:00.299Z,101021.22
2022-12-16T23:18:42.276Z,101023.41
2022-12-16T23:21:29.544Z,101031.00
2022-12-16T23:24:11.466Z,101027.88
2022-12-16T23:26:53.349Z,101033.66
2022-12-16T23:29:40.492Z,101038.75
2022-12-16T23:32:22.396Z,101045.41
2022-12-16T23:32:31.180Z,100855.47
2022-12-16T23:35:04.331Z,101041.44
2022-12-16T23:37:46.257Z,101050.94
2022-12-16T23:40:28.182Z,101048.88
2022-12-16T23:43:10.085Z,101050.31
2022-12-16T23:45:54.585Z,101051.78
2022-12-16T23:48:38.291Z,101058.94
2022-12-16T23:51:20.464Z,101060.28
2022-12-16T23:54:02.543Z,101059.66
2022-12-16T23:56:44.460Z,101058.06
2022-12-16T23:59:26.389Z,101060.00
